createdAt,value
2016-12-04T00:00:19.408Z,1.66
2016-12-04T00:01:31.192Z,1.61
2016-12-04T00:02:43.768Z,1.7
2016-12-04T00:03:55.902Z,1.58
2016-12-04T00:05:07.979Z,1.6
2016-12-04T00:06:35.798Z,1.56
2016-12-04T00:07:47.187Z,1.56
2016-12-04T00:08:58.636Z,1.64
2016-12-04T00:10:25.098Z,1.61
2016-12-04T00:11:36.528Z,1.56
2016-12-04T00:12:48.592Z,1.43
2016-12-04T00:14:00.563Z,1.56
2016-12-04T00:15:12.530Z,1.48
2016-12-04T00:16:23.951Z,1.42
2016-12-04T00:17:35.552Z,1.4
2016-12-04T00:18:46.995Z,1.38
2016-12-04T00:19:58.344Z,1.38
2016-12-04T00:21:09.817Z,1.38
2016-12-04T00:22:21.409Z,1.34
2016-12-04T00:23:33.073Z,1.3
2016-12-04T00:24:44.541Z,1.3
2016-12-04T00:25:56.100Z,1.32
2016-12-04T00:27:07.939Z,1.34
2016-12-04T00:28:19.682Z,1.32
2016-12-04T00:29:31.683Z,1.36
2016-12-04T00:32:53.686Z,1.2
2016-12-04T00:34:05.322Z,1.2
2016-12-04T00:35:17.092Z,1.18
2016-12-04T00:36:28.614Z,1.14
2016-12-04T00:37:40.375Z,1.12
2016-12-04T00:38:52.095Z,1.09
2016-12-04T00:40:03.504Z,1.12
2016-12-04T00:41:15.600Z,1.13
2016-12-04T00:42:27.399Z,1.07
2016-12-04T00:43:38.742Z,1.1
2016-12-04T00:44:50.493Z,1.1
2016-12-04T00:46:02.139Z,1.1
2016-12-04T00:47:13.500Z,1.04
2016-12-04T00:48:25.956Z,0.99
2016-12-04T00:49:37.893Z,1.13
2016-12-04T00:50:49.911Z,1.02
2016-12-04T00:52:01.266Z,1.06
2016-12-04T00:53:12.874Z,0.94
2016-12-04T00:54:24.618Z,1
2016-12-04T00:55:36.113Z,0.99
2016-12-04T00:56:47.536Z,0.95
2016-12-04T00:57:59.074Z,0.99
2016-12-04T00:59:10.473Z,0.99
2016-12-04T01:00:22.522Z,0.96
2016-12-04T01:01:33.884Z,0.96
2016-12-04T01:02:45.230Z,0.99
2016-12-04T01:03:56.530Z,0.88
2016-12-04T01:05:22.722Z,0.96
2016-12-04T01:06:36.463Z,0.88
2016-12-04T01:07:48.167Z,1
2016-12-04T01:08:59.632Z,0.89
2016-12-04T01:10:10.973Z,0.96
2016-12-04T01:11:22.244Z,0.88
2016-12-04T01:12:34.343Z,0.96
2016-12-04T01:13:45.983Z,0.84
2016-12-04T01:14:57.272Z,0.99
2016-12-04T01:16:08.630Z,0.86
2016-12-04T01:17:20.353Z,0.94
2016-12-04T01:18:32.380Z,0.85
2016-12-04T01:19:44.326Z,0.85
2016-12-04T01:20:56.020Z,0.86
2016-12-04T01:22:07.313Z,0.85
2016-12-04T01:23:18.601Z,0.85
2016-12-04T01:24:30.630Z,0.76
2016-12-04T01:25:41.909Z,0.82
2016-12-04T01:26:53.441Z,0.73
2016-12-04T01:28:05.610Z,0.73
2016-12-04T01:29:17.193Z,0.68
2016-12-04T01:30:28.854Z,0.64
2016-12-04T01:31:40.059Z,0.74
2016-12-04T01:32:51.313Z,0.71
2016-12-04T01:34:03.737Z,0.71
2016-12-04T01:35:15.163Z,0.7
2016-12-04T01:36:26.855Z,0.67
2016-12-04T01:37:38.313Z,0.67
2016-12-04T01:38:49.609Z,0.73
2016-12-04T01:40:00.954Z,0.66
2016-12-04T01:41:12.699Z,0.56
2016-12-04T01:42:24.317Z,0.51
2016-12-04T01:43:36.227Z,0.58
2016-12-04T01:44:47.665Z,0.47
2016-12-04T01:46:00.176Z,0.39
2016-12-04T01:47:15.892Z,0.44
2016-12-04T01:48:30.086Z,0.39
2016-12-04T01:49:44.755Z,0.33
2016-12-04T01:50:59.237Z,0.31
2016-12-04T01:52:12.675Z,0.33
2016-12-04T01:53:24.245Z,0.36
2016-12-04T01:54:36.096Z,0.2
2016-12-04T01:55:47.565Z,0.33
2016-12-04T01:56:58.947Z,0.27
2016-12-04T01:58:10.838Z,0.31
2016-12-04T01:59:22.370Z,0.34
2016-12-04T02:00:33.944Z,0.29
2016-12-04T02:01:46.324Z,0.33
2016-12-04T02:02:58.291Z,0.27
2016-12-04T02:04:10.261Z,0.33
2016-12-04T02:05:21.838Z,0.29
2016-12-04T02:06:33.991Z,0.37
2016-12-04T02:07:45.471Z,0.29
2016-12-04T02:08:57.166Z,0.29
2016-12-04T02:10:08.601Z,0.27
2016-12-04T02:11:20.366Z,0.33
2016-12-04T02:12:31.955Z,0.3
2016-12-04T02:13:43.530Z,0.29
2016-12-04T02:14:54.876Z,0.27
2016-12-04T02:16:06.216Z,0.31
2016-12-04T02:17:17.619Z,0.24
2016-12-04T02:18:29.603Z,0.27
2016-12-04T02:19:41.761Z,0.27
2016-12-04T02:20:58.463Z,0.29
2016-12-04T02:22:11.361Z,0.27
2016-12-04T02:23:22.651Z,0.27
2016-12-04T02:24:34.418Z,0.13
2016-12-04T02:25:46.384Z,0.15
2016-12-04T02:26:57.939Z,0.18
2016-12-04T02:28:09.459Z,0.13
2016-12-04T02:29:20.908Z,0.2
2016-12-04T02:30:32.584Z,0.16
2016-12-04T02:31:44.460Z,0.18
2016-12-04T02:32:56.043Z,0.15
2016-12-04T02:34:07.524Z,0.13
2016-12-04T02:35:18.985Z,0.09
2016-12-04T02:36:30.556Z,0.11
2016-12-04T02:37:42.223Z,0.06
2016-12-04T02:38:53.920Z,0.06
2016-12-04T02:40:05.269Z,0.06
2016-12-04T02:41:16.803Z,0.05
2016-12-04T02:42:28.337Z,0.11
2016-12-04T02:43:39.519Z,-0.07
2016-12-04T02:44:50.798Z,0.01
2016-12-04T02:46:02.586Z,-0.05
2016-12-04T02:47:14.153Z,-0.06
2016-12-04T02:48:25.988Z,0.02
2016-12-04T02:49:37.417Z,-0.05
2016-12-04T02:50:48.687Z,-0.09
2016-12-04T02:52:00.019Z,0.05
2016-12-04T02:53:11.650Z,-0.05
2016-12-04T02:54:23.576Z,-0.05
2016-12-04T02:55:35.138Z,-0.02
2016-12-04T02:56:46.471Z,-0.06
2016-12-04T02:57:57.700Z,0.01
2016-12-04T02:59:09.234Z,-0.12
2016-12-04T03:00:21.169Z,-0.13
2016-12-04T03:01:32.701Z,-0.07
2016-12-04T03:02:43.983Z,-0.15
2016-12-04T03:03:55.651Z,-0.13
2016-12-04T03:05:06.953Z,-0.07
2016-12-04T03:06:18.443Z,-0.12
2016-12-04T03:07:30.049Z,-0.12
2016-12-04T03:08:41.777Z,-0.13
2016-12-04T03:09:53.119Z,-0.13
2016-12-04T03:11:04.309Z,-0.07
2016-12-04T03:12:15.933Z,0.05
2016-12-04T03:13:27.226Z,-0.03
2016-12-04T03:14:39.252Z,-0.06
2016-12-04T03:15:50.691Z,-0.1
2016-12-04T03:17:02.557Z,-0.03
2016-12-04T03:18:14.042Z,-0.05
2016-12-04T03:19:25.672Z,-0.07
2016-12-04T03:20:36.971Z,-0.12
2016-12-04T03:21:48.608Z,-0.05
2016-12-04T03:23:00.061Z,-0.07
2016-12-04T03:24:12.235Z,-0.15
2016-12-04T03:25:23.822Z,-0.13
2016-12-04T03:26:35.057Z,-0.1
2016-12-04T03:27:46.986Z,-0.12
2016-12-04T03:28:58.358Z,-0.1
2016-12-04T03:30:10.398Z,-0.15
2016-12-04T03:31:21.915Z,-0.07
2016-12-04T03:32:33.265Z,-0.12
2016-12-04T03:33:44.547Z,-0.12
2016-12-04T03:34:58.460Z,-0.21
2016-12-04T03:36:10.047Z,-0.06
2016-12-04T03:37:21.444Z,-0.2
2016-12-04T03:38:33.311Z,-0.15
2016-12-04T03:39:44.607Z,-0.2
2016-12-04T03:40:55.940Z,-0.21
2016-12-04T03:42:07.825Z,-0.21
2016-12-04T03:43:19.159Z,-0.23
2016-12-04T03:44:30.553Z,-0.18
2016-12-04T03:45:42.038Z,-0.21
2016-12-04T03:46:53.371Z,-0.27
2016-12-04T03:48:04.905Z,-0.28
2016-12-04T03:49:16.181Z,-0.24
2016-12-04T03:51:53.929Z,-0.17
2016-12-04T03:53:05.423Z,-0.2
2016-12-04T03:54:17.478Z,-0.21
2016-12-04T03:55:28.951Z,-0.2
2016-12-04T03:56:40.218Z,-0.17
2016-12-04T03:57:51.904Z,-0.26
2016-12-04T03:59:03.576Z,-0.18
2016-12-04T04:00:15.488Z,-0.18
2016-12-04T04:01:27.009Z,-0.21
2016-12-04T04:02:38.737Z,-0.17
2016-12-04T04:03:50.626Z,-0.15
2016-12-04T04:05:01.981Z,-0.24
2016-12-04T04:06:13.650Z,-0.33
2016-12-04T04:07:25.131Z,-0.35
2016-12-04T04:08:36.806Z,-0.38
2016-12-04T04:09:48.774Z,-0.35
2016-12-04T04:11:00.284Z,-0.39
2016-12-04T04:12:12.254Z,-0.54
2016-12-04T04:13:23.978Z,-0.48
2016-12-04T04:14:35.841Z,-0.51
2016-12-04T04:15:47.568Z,-0.56
2016-12-04T04:16:59.106Z,-0.6
2016-12-04T04:18:11.141Z,-0.56
2016-12-04T04:19:22.803Z,-0.59
2016-12-04T04:20:34.306Z,-0.57
2016-12-04T04:21:45.963Z,-0.51
2016-12-04T04:22:57.603Z,-0.56
2016-12-04T04:24:09.289Z,-0.6
2016-12-04T04:25:20.827Z,-0.6
2016-12-04T04:26:32.206Z,-0.57
2016-12-04T04:27:43.625Z,-0.62
2016-12-04T04:28:55.029Z,-0.74
2016-12-04T04:30:06.659Z,-0.77
2016-12-04T04:31:18.317Z,-0.75
2016-12-04T04:32:29.689Z,-0.75
2016-12-04T04:33:41.182Z,-0.81
2016-12-04T04:34:52.626Z,-0.87
2016-12-04T04:36:04.272Z,-0.82
2016-12-04T04:37:15.904Z,-0.87
2016-12-04T04:38:27.276Z,-0.91
2016-12-04T04:39:38.848Z,-0.93
2016-12-04T04:40:50.224Z,-0.85
2016-12-04T04:42:01.923Z,-0.89
2016-12-04T04:43:13.447Z,-0.94
2016-12-04T04:44:25.483Z,-0.93
2016-12-04T04:45:36.919Z,-0.94
2016-12-04T04:46:48.499Z,-0.96
2016-12-04T04:48:00.607Z,-0.87
2016-12-04T04:49:14.652Z,-0.97
2016-12-04T04:50:26.372Z,-0.96
2016-12-04T04:51:38.259Z,-0.96
2016-12-04T04:52:50.107Z,-0.94
2016-12-04T04:54:01.936Z,-0.96
2016-12-04T04:55:13.155Z,-0.94
2016-12-04T04:56:24.424Z,-0.91
2016-12-04T04:57:35.853Z,-0.82
2016-12-04T04:58:47.659Z,-0.99
2016-12-04T04:59:59.363Z,-0.93
2016-12-04T05:01:10.814Z,-0.99
2016-12-04T05:02:22.237Z,-0.94
2016-12-04T05:03:33.531Z,-0.94
2016-12-04T05:04:45.121Z,-0.94
2016-12-04T05:05:56.759Z,-0.84
2016-12-04T05:07:08.585Z,-0.78
2016-12-04T05:08:19.893Z,-0.72
2016-12-04T05:09:31.131Z,-0.77
2016-12-04T05:10:42.415Z,-0.77
2016-12-04T05:11:54.400Z,-0.7
2016-12-04T05:13:05.718Z,-0.67
2016-12-04T05:14:17.357Z,-0.72
2016-12-04T05:15:28.730Z,-0.72
2016-12-04T05:16:40.425Z,-0.75
2016-12-04T05:17:51.952Z,-0.7
2016-12-04T05:19:03.633Z,-0.81
2016-12-04T05:20:14.976Z,-0.78
2016-12-04T05:21:26.431Z,-0.72
2016-12-04T05:22:38.128Z,-0.85
2016-12-04T05:23:49.767Z,-0.69
2016-12-04T05:25:01.429Z,-0.81
2016-12-04T05:26:12.702Z,-0.82
2016-12-04T05:27:24.044Z,-0.84
2016-12-04T05:28:35.884Z,-0.84
2016-12-04T05:29:47.592Z,-0.91
2016-12-04T05:30:58.967Z,-0.85
2016-12-04T05:32:10.654Z,-0.8
2016-12-04T05:33:22.343Z,-0.77
2016-12-04T05:34:33.568Z,-0.75
2016-12-04T05:35:45.343Z,-0.74
2016-12-04T05:36:56.921Z,-0.75
2016-12-04T05:38:08.212Z,-0.7
2016-12-04T05:39:20.076Z,-0.7
2016-12-04T05:40:31.713Z,-0.67
2016-12-04T05:41:43.415Z,-0.7
2016-12-04T05:42:54.940Z,-0.7
2016-12-04T05:44:06.363Z,-0.72
2016-12-04T05:45:18.158Z,-0.69
2016-12-04T05:46:29.546Z,-0.7
2016-12-04T05:47:41.106Z,-0.72
2016-12-04T05:48:52.368Z,-0.72
2016-12-04T05:50:03.895Z,-0.74
2016-12-04T05:51:15.255Z,-0.8
2016-12-04T05:52:26.909Z,-0.81
2016-12-04T05:53:38.633Z,-0.8
2016-12-04T05:54:50.192Z,-0.78
2016-12-04T05:56:01.641Z,-0.64
2016-12-04T05:57:13.237Z,-0.7
2016-12-04T05:58:25.313Z,-0.81
2016-12-04T05:59:37.346Z,-0.8
2016-12-04T06:00:49.163Z,-0.82
2016-12-04T06:02:00.655Z,-0.84
2016-12-04T06:03:15.140Z,-0.94
2016-12-04T06:04:26.777Z,-0.93
2016-12-04T06:05:38.789Z,-0.97
2016-12-04T06:06:50.381Z,-0.97
2016-12-04T06:08:01.659Z,-0.89
2016-12-04T06:09:13.452Z,-0.96
2016-12-04T06:10:24.738Z,-0.99
2016-12-04T06:11:36.789Z,-0.99
2016-12-04T06:12:48.146Z,-1.14
2016-12-04T06:13:59.830Z,-1.15
2016-12-04T06:15:11.292Z,-1.24
2016-12-04T06:16:22.726Z,-1.24
2016-12-04T06:17:34.422Z,-1.33
2016-12-04T06:18:46.075Z,-1.21
2016-12-04T06:19:57.722Z,-1.3
2016-12-04T06:21:09.636Z,-1.33
2016-12-04T06:22:21.215Z,-1.29
2016-12-04T06:23:32.883Z,-1.32
2016-12-04T06:24:44.722Z,-1.35
2016-12-04T06:25:56.005Z,-1.38
2016-12-04T06:27:07.612Z,-1.3
2016-12-04T06:28:19.736Z,-1.36
2016-12-04T06:29:31.411Z,-1.33
2016-12-04T06:30:42.644Z,-1.38
2016-12-04T06:31:54.001Z,-1.36
2016-12-04T06:33:05.388Z,-1.39
2016-12-04T06:34:17.318Z,-1.32
2016-12-04T06:35:29.044Z,-1.36
2016-12-04T06:36:40.326Z,-1.35
2016-12-04T06:37:51.575Z,-1.42
2016-12-04T06:39:03.345Z,-1.33
2016-12-04T06:40:14.962Z,-1.29
2016-12-04T06:41:26.913Z,-1.3
2016-12-04T06:42:38.345Z,-1.3
2016-12-04T06:43:50.166Z,-1.42
2016-12-04T06:45:01.445Z,-1.36
2016-12-04T06:46:12.987Z,-1.45
2016-12-04T06:47:24.584Z,-1.42
2016-12-04T06:48:36.155Z,-1.45
2016-12-04T06:49:47.435Z,-1.36
2016-12-04T06:50:58.739Z,-1.43
2016-12-04T06:52:10.176Z,-1.36
2016-12-04T06:53:22.266Z,-1.42
2016-12-04T06:54:33.703Z,-1.36
2016-12-04T06:55:45.506Z,-1.5
2016-12-04T06:56:56.829Z,-1.4
2016-12-04T06:58:08.151Z,-1.53
2016-12-04T06:59:20.232Z,-1.54
2016-12-04T07:00:31.666Z,-1.43
2016-12-04T07:01:43.054Z,-1.56
2016-12-04T07:02:54.387Z,-1.53
2016-12-04T07:04:06.096Z,-1.56
2016-12-04T07:05:18.624Z,-1.45
2016-12-04T07:06:30.362Z,-1.4
2016-12-04T07:07:42.047Z,-1.46
2016-12-04T07:08:53.781Z,-1.43
2016-12-04T07:10:05.445Z,-1.42
2016-12-04T07:11:17.651Z,-1.39
2016-12-04T07:12:29.050Z,-1.33
2016-12-04T07:13:40.892Z,-1.38
2016-12-04T07:14:52.317Z,-1.35
2016-12-04T07:16:03.765Z,-1.38
2016-12-04T07:17:33.370Z,-1.33
2016-12-04T07:18:59.551Z,-1.39
2016-12-04T07:20:10.851Z,-1.35
2016-12-04T07:21:22.033Z,-1.36
2016-12-04T07:22:33.659Z,-1.35
2016-12-04T07:23:45.320Z,-1.25
2016-12-04T07:24:57.019Z,-1.27
2016-12-04T07:26:08.214Z,-1.27
2016-12-04T07:27:19.517Z,-1.35
2016-12-04T07:28:31.175Z,-1.33
2016-12-04T07:29:42.974Z,-1.35
2016-12-04T07:30:54.643Z,-1.29
2016-12-04T07:32:06.237Z,-1.17
2016-12-04T07:33:17.692Z,-1.19
2016-12-04T07:34:29.589Z,-1.19
2016-12-04T07:35:40.869Z,-1.17
2016-12-04T07:36:52.554Z,-1.18
2016-12-04T07:38:03.943Z,-1.17
2016-12-04T07:39:15.381Z,-1.18
2016-12-04T07:40:27.087Z,-1.18
2016-12-04T07:41:38.702Z,-1.14
2016-12-04T07:42:50.592Z,-1.12
2016-12-04T07:44:02.077Z,-1.24
2016-12-04T07:45:14.236Z,-1.15
2016-12-04T07:46:25.782Z,-1.22
2016-12-04T07:47:36.996Z,-1.17
2016-12-04T07:48:48.455Z,-1.15
2016-12-04T07:50:00.358Z,-1.17
2016-12-04T07:51:11.963Z,-1.06
2016-12-04T07:52:23.808Z,-1.15
2016-12-04T07:53:35.322Z,-1.01
2016-12-04T07:54:46.724Z,-0.93
2016-12-04T07:55:58.364Z,-0.97
2016-12-04T07:57:10.478Z,-0.94
2016-12-04T07:58:22.286Z,-0.96
2016-12-04T07:59:34.026Z,-0.87
2016-12-04T08:00:45.748Z,-0.84
2016-12-04T08:01:57.200Z,-0.81
2016-12-04T08:03:08.793Z,-0.84
2016-12-04T08:04:20.704Z,-0.72
2016-12-04T08:05:33.604Z,-0.67
2016-12-04T08:06:46.242Z,-0.72
2016-12-04T08:07:58.056Z,-0.74
2016-12-04T08:09:09.805Z,-0.66
2016-12-04T08:10:22.214Z,-0.62
2016-12-04T08:11:34.415Z,-0.53
2016-12-04T08:12:46.118Z,-0.56
2016-12-04T08:13:57.554Z,-0.6
2016-12-04T08:15:08.996Z,-0.63
2016-12-04T08:16:20.612Z,-0.54
2016-12-04T08:17:32.378Z,-0.48
2016-12-04T08:18:43.842Z,-0.51
2016-12-04T08:19:55.158Z,-0.53
2016-12-04T08:21:06.941Z,-0.54
2016-12-04T08:22:18.574Z,-0.6
2016-12-04T08:23:29.929Z,-0.57
2016-12-04T08:24:41.103Z,-0.56
2016-12-04T08:25:52.312Z,-0.57
2016-12-04T08:27:03.897Z,-0.57
2016-12-04T08:28:15.403Z,-0.46
2016-12-04T08:29:27.654Z,-0.46
2016-12-04T08:30:39.155Z,-0.35
2016-12-04T08:31:53.326Z,-0.28
2016-12-04T08:33:04.799Z,-0.33
2016-12-04T08:34:17.787Z,-0.38
2016-12-04T08:35:30.227Z,-0.21
2016-12-04T08:36:44.236Z,-0.24
2016-12-04T08:37:56.581Z,-0.13
2016-12-04T08:39:13.001Z,-0.12
2016-12-04T08:40:33.303Z,-0.21
2016-12-04T08:41:51.561Z,-0.13
2016-12-04T08:43:12.950Z,-0.03
2016-12-04T08:44:27.868Z,-0.03
2016-12-04T08:45:41.888Z,-0.05
2016-12-04T08:46:53.664Z,-0.05
2016-12-04T08:49:31.639Z,-0.05
2016-12-04T08:50:43.680Z,0.05
2016-12-04T08:51:56.417Z,0.19
2016-12-04T08:53:09.441Z,0.26
2016-12-04T08:54:20.781Z,0.52
2016-12-04T08:55:33.061Z,0.51
2016-12-04T08:56:44.454Z,0.49
2016-12-04T08:57:56.873Z,0.58
2016-12-04T08:59:08.503Z,0.4
2016-12-04T09:00:21.079Z,0.34
2016-12-04T09:01:32.948Z,0.33
2016-12-04T09:02:45.650Z,0.45
2016-12-04T09:03:57.572Z,0.63
2016-12-04T09:05:09.519Z,0.56
2016-12-04T09:06:22.022Z,0.44
2016-12-04T09:07:33.312Z,0.42
2016-12-04T09:08:45.070Z,0.42
2016-12-04T09:09:57.004Z,0.34
2016-12-04T09:11:08.917Z,0.39
2016-12-04T09:12:20.517Z,0.39
2016-12-04T09:13:32.344Z,0.99
2016-12-04T09:14:44.822Z,1.75
2016-12-04T09:15:56.709Z,1.58
2016-12-04T09:17:08.457Z,1.27
2016-12-04T09:18:20.277Z,0.95
2016-12-04T09:19:32.748Z,0.91
2016-12-04T09:22:11.217Z,0.86
2016-12-04T09:23:22.686Z,0.88
2016-12-04T09:24:34.099Z,0.84
2016-12-04T09:25:45.866Z,0.73
2016-12-04T09:26:57.878Z,0.71
2016-12-04T09:28:12.717Z,0.73
2016-12-04T09:29:40.293Z,0.77
2016-12-04T09:30:52.712Z,0.89
2016-12-04T09:32:05.232Z,0.86
2016-12-04T09:33:32.491Z,0.84
2016-12-04T09:34:48.460Z,0.88
2016-12-04T09:36:04.525Z,0.84
2016-12-04T09:37:17.942Z,0.91
2016-12-04T09:38:33.305Z,0.82
2016-12-04T09:39:45.270Z,0.77
2016-12-04T09:40:57.904Z,0.74
2016-12-04T09:42:09.900Z,0.89
2016-12-04T09:43:22.302Z,0.89
2016-12-04T09:44:34.388Z,0.92
2016-12-04T09:45:45.916Z,0.89
2016-12-04T09:46:58.098Z,1.09
2016-12-04T09:48:12.597Z,1.14
2016-12-04T09:49:26.128Z,1.21
2016-12-04T09:50:39.690Z,1.06
2016-12-04T09:51:51.492Z,1.06
2016-12-04T09:53:04.770Z,1.06
2016-12-04T09:54:16.141Z,1.09
2016-12-04T09:55:27.996Z,1.14
2016-12-04T09:56:39.580Z,1.18
2016-12-04T09:58:06.231Z,1.2
2016-12-04T09:59:18.041Z,1.4
2016-12-04T10:00:30.082Z,1.43
2016-12-04T10:01:43.315Z,1.36
2016-12-04T10:02:54.768Z,1.52
2016-12-04T10:04:06.833Z,1.49
2016-12-04T10:05:18.844Z,1.53
2016-12-04T10:06:30.769Z,1.48
2016-12-04T10:07:43.822Z,1.53
2016-12-04T10:08:55.249Z,1.52
2016-12-04T10:10:08.306Z,1.53
2016-12-04T10:11:20.536Z,1.52
2016-12-04T10:12:31.736Z,1.49
2016-12-04T10:13:43.601Z,1.5
2016-12-04T10:14:55.673Z,1.57
2016-12-04T10:16:07.112Z,1.64
2016-12-04T10:17:19.446Z,1.66
2016-12-04T10:18:31.215Z,1.7
2016-12-04T10:19:42.648Z,1.6
2016-12-04T10:20:54.855Z,1.64
2016-12-04T10:22:07.771Z,1.71
2016-12-04T10:23:19.991Z,1.78
2016-12-04T10:24:33.550Z,1.88
2016-12-04T10:26:01.779Z,1.93
2016-12-04T10:27:14.258Z,2.08
2016-12-04T10:28:25.762Z,2.15
2016-12-04T10:29:38.767Z,2.12
2016-12-04T10:30:51.812Z,2.03
2016-12-04T10:32:03.701Z,2.08
2016-12-04T10:33:15.352Z,2.07
2016-12-04T10:34:27.243Z,2.08
2016-12-04T10:35:39.256Z,2.19
2016-12-04T10:36:52.952Z,2.26
2016-12-04T10:38:09.496Z,2.23
2016-12-04T10:39:36.315Z,2.23
2016-12-04T10:41:07.596Z,2.23
2016-12-04T10:42:31.632Z,2.34
2016-12-04T10:43:51.039Z,2.28
2016-12-04T10:45:05.225Z,2.37
2016-12-04T10:46:21.700Z,2.36
2016-12-04T10:47:43.108Z,2.34
2016-12-04T10:48:59.256Z,2.47
2016-12-04T10:50:13.437Z,2.51
2016-12-04T10:51:27.633Z,2.55
2016-12-04T10:52:43.169Z,2.54
2016-12-04T10:53:57.399Z,2.4
2016-12-04T10:55:11.863Z,2.37
2016-12-04T10:56:26.218Z,2.43
2016-12-04T10:57:40.635Z,2.55
2016-12-04T10:58:55.174Z,2.57
2016-12-04T11:00:09.062Z,2.69
2016-12-04T11:01:24.915Z,2.7
2016-12-04T11:02:55.184Z,2.57
2016-12-04T11:04:10.614Z,2.51
2016-12-04T11:05:27.824Z,2.57
2016-12-04T11:06:42.572Z,2.58
2016-12-04T11:07:57.605Z,2.69
2016-12-04T11:09:12.182Z,2.73
2016-12-04T11:10:27.181Z,2.77
2016-12-04T11:11:42.211Z,2.75
2016-12-04T11:13:12.640Z,2.73
2016-12-04T11:14:27.274Z,2.82
2016-12-04T11:15:41.980Z,2.7
2016-12-04T11:16:55.872Z,2.88
2016-12-04T11:18:10.048Z,2.8
2016-12-04T11:19:24.337Z,2.75
2016-12-04T11:20:38.183Z,2.82
2016-12-04T11:21:52.659Z,2.94
2016-12-04T11:23:06.835Z,2.95
2016-12-04T11:24:21.864Z,3.15
2016-12-04T11:25:36.294Z,3.13
2016-12-04T11:26:51.384Z,3.13
2016-12-04T11:28:06.237Z,3.06
2016-12-04T11:29:20.569Z,3.18
2016-12-04T11:30:35.360Z,3.21
2016-12-04T11:31:49.104Z,3.11
2016-12-04T11:33:03.011Z,3.11
2016-12-04T11:34:17.731Z,3.15
2016-12-04T11:35:32.421Z,3.19
2016-12-04T11:36:46.847Z,3.15
2016-12-04T11:38:01.447Z,3.11
2016-12-04T11:39:15.473Z,3.15
2016-12-04T11:40:30.173Z,3.13
2016-12-04T11:41:44.604Z,3
2016-12-04T11:42:58.922Z,3.13
2016-12-04T11:44:12.848Z,3.16
2016-12-04T11:45:27.435Z,3.24
2016-12-04T11:46:42.563Z,3.24
2016-12-04T11:47:56.885Z,3.41
2016-12-04T11:49:11.287Z,3.33
2016-12-04T11:50:26.659Z,3.48
2016-12-04T11:51:41.303Z,3.53
2016-12-04T11:52:56.448Z,3.58
2016-12-04T11:54:11.083Z,3.56
2016-12-04T11:55:25.206Z,3.68
2016-12-04T11:56:39.964Z,3.67
2016-12-04T11:57:54.020Z,3.67
2016-12-04T11:59:23.315Z,3.74
2016-12-04T12:00:37.676Z,3.7
2016-12-04T12:01:51.845Z,3.64
2016-12-04T12:03:05.991Z,3.66
2016-12-04T12:04:20.653Z,3.64
2016-12-04T12:05:35.224Z,3.64
2016-12-04T12:06:49.325Z,3.67
2016-12-04T12:08:03.643Z,3.66
2016-12-04T12:09:18.335Z,3.73
2016-12-04T12:10:32.828Z,3.7
2016-12-04T12:11:46.663Z,3.67
2016-12-04T12:13:02.039Z,3.66
2016-12-04T12:14:18.555Z,3.73
2016-12-04T12:15:32.456Z,3.61
2016-12-04T12:16:47.270Z,3.68
2016-12-04T12:18:01.243Z,3.74
2016-12-04T12:19:15.478Z,3.76
2016-12-04T12:20:29.779Z,3.77
2016-12-04T12:21:43.957Z,3.82
2016-12-04T12:23:01.829Z,3.76
2016-12-04T12:24:16.468Z,3.78
2016-12-04T12:25:30.876Z,3.78
2016-12-04T12:26:45.105Z,3.89
2016-12-04T12:28:00.129Z,3.99
2016-12-04T12:29:15.424Z,3.99
2016-12-04T12:30:29.752Z,4.03
2016-12-04T12:31:44.196Z,3.85
2016-12-04T12:32:58.808Z,3.94
2016-12-04T12:34:13.984Z,3.94
2016-12-04T12:35:29.117Z,4
2016-12-04T12:36:43.887Z,4.04
2016-12-04T12:37:58.761Z,4.02
2016-12-04T12:40:42.612Z,4.13
2016-12-04T12:41:57.306Z,4.1
2016-12-04T12:43:11.230Z,4.14
2016-12-04T12:44:25.988Z,4.36
2016-12-04T12:45:41.155Z,4.27
2016-12-04T12:46:55.454Z,4.38
2016-12-04T12:48:10.221Z,4.42
2016-12-04T12:49:26.605Z,4.4
2016-12-04T12:50:41.322Z,4.38
2016-12-04T12:51:56.578Z,4.42
2016-12-04T12:53:11.214Z,4.25
2016-12-04T12:54:25.618Z,4.32
2016-12-04T12:55:40.205Z,4.31
2016-12-04T12:56:54.624Z,4.38
2016-12-04T12:58:08.733Z,4.31
2016-12-04T12:59:23.519Z,4.3
2016-12-04T13:00:37.906Z,4.27
2016-12-04T13:01:51.996Z,4.46
2016-12-04T13:03:06.820Z,4.38
2016-12-04T13:04:20.996Z,4.58
2016-12-04T13:05:35.665Z,4.74
2016-12-04T13:06:50.177Z,5.1
2016-12-04T13:08:04.020Z,5.2
2016-12-04T13:09:18.203Z,5.18
2016-12-04T13:10:33.927Z,5.04
2016-12-04T13:11:48.290Z,4.94
2016-12-04T13:13:03.912Z,4.98
2016-12-04T13:14:17.812Z,4.87
2016-12-04T13:15:31.985Z,4.9
2016-12-04T13:16:45.708Z,4.78
2016-12-04T13:18:00.704Z,4.95
2016-12-04T13:19:15.266Z,4.82
2016-12-04T13:20:30.711Z,4.9
2016-12-04T13:21:45.184Z,4.76
2016-12-04T13:22:59.616Z,4.87
2016-12-04T13:24:14.467Z,4.82
2016-12-04T13:25:28.836Z,4.75
2016-12-04T13:26:44.678Z,4.79
2016-12-04T13:28:00.147Z,4.95
2016-12-04T13:29:15.779Z,5
2016-12-04T13:30:30.670Z,5
2016-12-04T13:31:45.844Z,4.97
2016-12-04T13:33:16.020Z,5.01
2016-12-04T13:34:32.919Z,5.08
2016-12-04T13:35:48.002Z,4.94
2016-12-04T13:37:06.399Z,4.95
2016-12-04T13:40:22.459Z,4.95
2016-12-04T13:41:41.244Z,4.94
2016-12-04T13:42:56.827Z,4.94
2016-12-04T13:44:12.416Z,5.02
2016-12-04T13:45:29.023Z,4.94
2016-12-04T13:46:44.335Z,4.98
2016-12-04T13:48:00.072Z,5.01
2016-12-04T13:49:15.825Z,5.13
2016-12-04T13:50:30.760Z,5.1
2016-12-04T13:51:46.375Z,5.16
2016-12-04T13:53:00.828Z,5.25
2016-12-04T13:54:16.059Z,5.2
2016-12-04T13:55:33.272Z,5.23
2016-12-04T13:56:48.952Z,5.15
2016-12-04T13:58:04.314Z,5.25
2016-12-04T13:59:19.802Z,5.22
2016-12-04T14:00:34.567Z,5.2
2016-12-04T14:01:48.986Z,5.16
2016-12-04T14:03:02.811Z,5.18
2016-12-04T14:04:18.849Z,5.18
2016-12-04T14:05:35.599Z,5.08
2016-12-04T14:06:50.760Z,5.05
2016-12-04T14:08:05.132Z,5.05
2016-12-04T14:09:19.382Z,5.12
2016-12-04T14:10:34.351Z,5.1
2016-12-04T14:11:48.973Z,5.05
2016-12-04T14:13:03.338Z,5.12
2016-12-04T14:14:17.906Z,5.07
2016-12-04T14:15:31.887Z,5.13
2016-12-04T14:16:45.899Z,4.98
2016-12-04T14:18:00.211Z,5.07
2016-12-04T14:19:16.158Z,5.16
2016-12-04T14:20:30.892Z,5.19
2016-12-04T14:22:00.185Z,5.08
2016-12-04T14:23:15.618Z,5.04
2016-12-04T14:24:30.307Z,5.08
2016-12-04T14:25:46.079Z,4.98
2016-12-04T14:27:17.725Z,4.98
2016-12-04T14:28:34.141Z,4.94
2016-12-04T14:29:53.897Z,5.04
2016-12-04T14:31:11.219Z,5.01
2016-12-04T14:32:29.777Z,4.94
2016-12-04T14:33:47.283Z,4.94
2016-12-04T14:35:04.557Z,4.94
2016-12-04T14:36:20.108Z,5
2016-12-04T14:37:37.197Z,4.95
2016-12-04T14:38:53.385Z,4.97
2016-12-04T14:40:08.721Z,5.02
2016-12-04T14:41:25.606Z,4.98
2016-12-04T14:42:41.178Z,5.01
2016-12-04T14:43:55.353Z,5.01
2016-12-04T14:45:09.693Z,4.94
2016-12-04T14:46:24.441Z,4.95
2016-12-04T14:47:40.373Z,4.9
2016-12-04T14:48:55.537Z,5
2016-12-04T14:50:10.023Z,4.98
2016-12-04T14:51:38.893Z,4.92
2016-12-04T14:52:54.216Z,4.83
2016-12-04T14:54:09.217Z,4.94
2016-12-04T14:55:24.312Z,4.94
2016-12-04T14:56:38.817Z,4.97
2016-12-04T14:57:54.668Z,4.89
2016-12-04T14:59:08.953Z,4.78
2016-12-04T15:00:27.129Z,4.87
2016-12-04T15:01:42.306Z,4.76
2016-12-04T15:02:56.153Z,4.76
2016-12-04T15:04:10.629Z,4.79
2016-12-04T15:05:26.394Z,4.84
2016-12-04T15:06:42.259Z,4.79
2016-12-04T15:07:58.230Z,4.75
2016-12-04T15:09:12.969Z,4.92
2016-12-04T15:10:27.417Z,4.87
2016-12-04T15:11:42.918Z,4.89
2016-12-04T15:12:58.587Z,4.92
2016-12-04T15:14:13.177Z,4.84
2016-12-04T15:15:27.156Z,4.78
2016-12-04T15:16:49.973Z,4.71
2016-12-04T15:18:06.447Z,4.68
2016-12-04T15:19:21.027Z,4.7
2016-12-04T15:20:36.288Z,4.74
2016-12-04T15:21:50.195Z,4.66
2016-12-04T15:23:04.276Z,4.63
2016-12-04T15:24:18.420Z,4.68
2016-12-04T15:25:33.279Z,4.53
2016-12-04T15:26:49.116Z,4.6
2016-12-04T15:28:03.669Z,4.48
2016-12-04T15:29:17.905Z,4.49
2016-12-04T15:30:32.158Z,4.45
2016-12-04T15:31:47.045Z,4.5
2016-12-04T15:33:01.648Z,4.46
2016-12-04T15:34:15.893Z,4.49
2016-12-04T15:35:29.645Z,4.4
2016-12-04T15:36:43.819Z,4.45
2016-12-04T15:37:58.774Z,4.39
2016-12-04T15:39:13.456Z,4.36
2016-12-04T15:40:53.802Z,4.28
2016-12-04T15:42:08.301Z,4.38
2016-12-04T15:43:22.384Z,4.32
2016-12-04T15:44:36.501Z,4.16
2016-12-04T15:45:52.170Z,4.21
2016-12-04T15:47:07.040Z,4.16
2016-12-04T15:48:21.027Z,4.12
2016-12-04T15:49:35.567Z,4.06
2016-12-04T15:50:50.054Z,4.12
2016-12-04T15:52:04.607Z,4.06
2016-12-04T15:53:19.762Z,4.03
2016-12-04T15:54:34.597Z,4.02
2016-12-04T15:55:49.245Z,4.02
2016-12-04T15:57:03.767Z,3.96
2016-12-04T15:58:17.931Z,3.96
2016-12-04T15:59:33.748Z,3.96
2016-12-04T16:00:47.971Z,3.96
2016-12-04T16:02:02.037Z,3.91
2016-12-04T16:03:16.066Z,3.95
2016-12-04T16:04:31.560Z,3.91
2016-12-04T16:05:46.023Z,3.85
2016-12-04T16:07:00.573Z,3.89
2016-12-04T16:08:14.848Z,3.85
2016-12-04T16:09:29.653Z,3.91
2016-12-04T16:10:44.651Z,3.82
2016-12-04T16:12:00.030Z,3.78
2016-12-04T16:13:15.463Z,3.74
2016-12-04T16:14:30.133Z,3.82
2016-12-04T16:15:44.755Z,3.71
2016-12-04T16:16:58.585Z,3.73